sensor_id;sensor_type;location;lat;lon;timestamp;temperature;humidity
24744;DHT22;12844;52.110;5.548;2024-01-07T00:01:57;14.70;54.70
24744;DHT22;12844;52.110;5.548;2024-01-07T00:04:22;14.70;54.70
24744;DHT22;12844;52.110;5.548;2024-01-07T00:06:48;14.70;54.70
24744;DHT22;12844;52.110;5.548;2024-01-07T00:09:13;14.70;54.70
24744;DHT22;12844;52.110;5.548;2024-01-07T00:11:40;14.70;54.70
24744;DHT22;12844;52.110;5.548;2024-01-07T00:14:05;14.70;54.60
24744;DHT22;12844;52.110;5.548;2024-01-07T00:16:31;14.70;54.70
24744;DHT22;12844;52.110;5.548;2024-01-07T00:18:57;14.70;54.70
24744;DHT22;12844;52.110;5.548;2024-01-07T00:21:23;14.70;54.70
24744;DHT22;12844;52.110;5.548;2024-01-07T00:23:48;14.70;54.70
24744;DHT22;12844;52.110;5.548;2024-01-07T00:26:14;14.70;54.70
24744;DHT22;12844;52.110;5.548;2024-01-07T00:28:39;14.70;54.70
24744;DHT22;12844;52.110;5.548;2024-01-07T00:31:05;14.70;54.60
24744;DHT22;12844;52.110;5.548;2024-01-07T00:33:32;14.70;54.70
24744;DHT22;12844;52.110;5.548;2024-01-07T00:35:59;14.70;54.60
24744;DHT22;12844;52.110;5.548;2024-01-07T00:38:25;14.70;54.60
24744;DHT22;12844;52.110;5.548;2024-01-07T00:40:50;14.70;54.60
24744;DHT22;12844;52.110;5.548;2024-01-07T00:43:16;14.70;54.70
24744;DHT22;12844;52.110;5.548;2024-01-07T00:45:41;14.70;54.70
24744;DHT22;12844;52.110;5.548;2024-01-07T00:48:07;14.70;54.70
24744;DHT22;12844;52.110;5.548;2024-01-07T00:50:32;14.70;54.70
24744;DHT22;12844;52.110;5.548;2024-01-07T00:52:58;14.70;54.70
24744;DHT22;12844;52.110;5.548;2024-01-07T00:55:23;14.70;54.70
24744;DHT22;12844;52.110;5.548;2024-01-07T00:57:49;14.70;54.70
24744;DHT22;12844;52.110;5.548;2024-01-07T01:00:16;14.70;54.70
24744;DHT22;12844;52.110;5.548;2024-01-07T01:02:42;14.70;54.70
24744;DHT22;12844;52.110;5.548;2024-01-07T01:05:07;14.60;54.60
24744;DHT22;12844;52.110;5.548;2024-01-07T01:07:33;14.60;54.70
24744;DHT22;12844;52.110;5.548;2024-01-07T01:09:59;14.60;54.70
24744;DHT22;12844;52.110;5.548;2024-01-07T01:12:24;14.70;54.70
24744;DHT22;12844;52.110;5.548;2024-01-07T01:14:50;14.60;54.60
24744;DHT22;12844;52.110;5.548;2024-01-07T01:17:15;14.70;54.70
24744;DHT22;12844;52.110;5.548;2024-01-07T01:19:41;14.60;54.60
24744;DHT22;12844;52.110;5.548;2024-01-07T01:22:07;14.60;54.60
24744;DHT22;12844;52.110;5.548;2024-01-07T01:24:32;14.60;54.60
24744;DHT22;12844;52.110;5.548;2024-01-07T01:26:58;14.70;54.60
24744;DHT22;12844;52.110;5.548;2024-01-07T01:29:24;14.70;54.60
24744;DHT22;12844;52.110;5.548;2024-01-07T01:31:49;14.60;54.60
24744;DHT22;12844;52.110;5.548;2024-01-07T01:34:15;14.60;54.60
24744;DHT22;12844;52.110;5.548;2024-01-07T01:36:40;14.60;54.60
24744;DHT22;12844;52.110;5.548;2024-01-07T01:39:06;14.70;54.60
24744;DHT22;12844;52.110;5.548;2024-01-07T01:41:32;14.60;54.60
24744;DHT22;12844;52.110;5.548;2024-01-07T01:43:59;14.70;54.60
24744;DHT22;12844;52.110;5.548;2024-01-07T01:46:25;14.60;54.60
24744;DHT22;12844;52.110;5.548;2024-01-07T01:48:51;14.60;54.60
24744;DHT22;12844;52.110;5.548;2024-01-07T01:51:17;14.60;54.60
24744;DHT22;12844;52.110;5.548;2024-01-07T01:53:43;14.60;54.60
24744;DHT22;12844;52.110;5.548;2024-01-07T01:56:09;14.60;54.60
24744;DHT22;12844;52.110;5.548;2024-01-07T01:58:36;14.60;54.60
24744;DHT22;12844;52.110;5.548;2024-01-07T02:01:03;14.60;54.60
24744;DHT22;12844;52.110;5.548;2024-01-07T02:03:29;14.60;54.60
24744;DHT22;12844;52.110;5.548;2024-01-07T02:05:55;14.60;54.60
24744;DHT22;12844;52.110;5.548;2024-01-07T02:08:21;14.60;54.60
24744;DHT22;12844;52.110;5.548;2024-01-07T02:10:47;14.60;54.60
24744;DHT22;12844;52.110;5.548;2024-01-07T02:13:12;14.60;54.60
24744;DHT22;12844;52.110;5.548;2024-01-07T02:15:38;14.60;54.60
24744;DHT22;12844;52.110;5.548;2024-01-07T02:18:04;14.60;54.60
24744;DHT22;12844;52.110;5.548;2024-01-07T02:20:30;14.60;54.60
24744;DHT22;12844;52.110;5.548;2024-01-07T02:22:55;14.60;54.60
24744;DHT22;12844;52.110;5.548;2024-01-07T02:25:23;14.60;54.60
24744;DHT22;12844;52.110;5.548;2024-01-07T02:27:49;14.60;54.70
24744;DHT22;12844;52.110;5.548;2024-01-07T02:30:14;14.60;54.60
24744;DHT22;12844;52.110;5.548;2024-01-07T02:32:40;14.60;54.60
24744;DHT22;12844;52.110;5.548;2024-01-07T02:35:06;14.60;54.60
24744;DHT22;12844;52.110;5.548;2024-01-07T02:37:31;14.60;54.60
24744;DHT22;12844;52.110;5.548;2024-01-07T02:39:57;14.60;54.60
24744;DHT22;12844;52.110;5.548;2024-01-07T02:42:22;14.60;54.60
24744;DHT22;12844;52.110;5.548;2024-01-07T02:44:48;14.60;54.60
24744;DHT22;12844;52.110;5.548;2024-01-07T02:47:13;14.60;54.60
24744;DHT22;12844;52.110;5.548;2024-01-07T02:49:39;14.60;54.60
24744;DHT22;12844;52.110;5.548;2024-01-07T02:52:05;14.50;54.50
24744;DHT22;12844;52.110;5.548;2024-01-07T02:54:30;14.60;54.60
24744;DHT22;12844;52.110;5.548;2024-01-07T02:56:56;14.50;54.60
24744;DHT22;12844;52.110;5.548;2024-01-07T02:59:21;14.50;54.60
24744;DHT22;12844;52.110;5.548;2024-01-07T03:01:47;14.50;54.60
24744;DHT22;12844;52.110;5.548;2024-01-07T03:04:15;14.50;54.60
24744;DHT22;12844;52.110;5.548;2024-01-07T03:06:41;14.50;54.60
24744;DHT22;12844;52.110;5.548;2024-01-07T03:09:07;14.50;54.60
24744;DHT22;12844;52.110;5.548;2024-01-07T03:11:32;14.50;54.60
24744;DHT22;12844;52.110;5.548;2024-01-07T03:13:58;14.60;54.60
24744;DHT22;12844;52.110;5.548;2024-01-07T03:16:25;14.50;55.30
24744;DHT22;12844;52.110;5.548;2024-01-07T03:18:51;14.50;54.60
24744;DHT22;12844;52.110;5.548;2024-01-07T03:21:21;14.50;54.60
24744;DHT22;12844;52.110;5.548;2024-01-07T03:23:47;14.50;54.60
24744;DHT22;12844;52.110;5.548;2024-01-07T03:26:14;14.50;54.60
24744;DHT22;12844;52.110;5.548;2024-01-07T03:28:39;14.50;54.60
24744;DHT22;12844;52.110;5.548;2024-01-07T03:31:09;14.50;54.60
24744;DHT22;12844;52.110;5.548;2024-01-07T03:33:36;14.50;54.60
24744;DHT22;12844;52.110;5.548;2024-01-07T03:36:15;14.50;54.60
24744;DHT22;12844;52.110;5.548;2024-01-07T03:38:41;14.50;54.60
24744;DHT22;12844;52.110;5.548;2024-01-07T03:41:06;14.50;54.60
24744;DHT22;12844;52.110;5.548;2024-01-07T03:43:32;14.50;54.60
24744;DHT22;12844;52.110;5.548;2024-01-07T03:45:58;14.50;54.60
24744;DHT22;12844;52.110;5.548;2024-01-07T03:48:24;14.50;54.60
24744;DHT22;12844;52.110;5.548;2024-01-07T03:50:50;14.50;54.60
24744;DHT22;12844;52.110;5.548;2024-01-07T03:53:16;14.50;54.60
24744;DHT22;12844;52.110;5.548;2024-01-07T03:55:42;14.50;54.60
24744;DHT22;12844;52.110;5.548;2024-01-07T03:58:07;14.50;54.60
24744;DHT22;12844;52.110;5.548;2024-01-07T04:00:33;14.50;54.60
24744;DHT22;12844;52.110;5.548;2024-01-07T04:02:59;14.50;54.60
24744;DHT22;12844;52.110;5.548;2024-01-07T04:05:25;14.50;54.60
24744;DHT22;12844;52.110;5.548;2024-01-07T04:07:50;14.50;54.60
24744;DHT22;12844;52.110;5.548;2024-01-07T04:10:19;14.50;54.60
24744;DHT22;12844;52.110;5.548;2024-01-07T04:12:45;14.50;54.60
24744;DHT22;12844;52.110;5.548;2024-01-07T04:15:11;14.50;54.60
24744;DHT22;12844;52.110;5.548;2024-01-07T04:17:37;14.50;54.60
24744;DHT22;12844;52.110;5.548;2024-01-07T04:20:04;14.50;54.60
24744;DHT22;12844;52.110;5.548;2024-01-07T04:22:29;14.40;54.50
24744;DHT22;12844;52.110;5.548;2024-01-07T04:24:55;14.40;54.50
24744;DHT22;12844;52.110;5.548;2024-01-07T04:27:20;14.40;54.50
24744;DHT22;12844;52.110;5.548;2024-01-07T04:29:46;14.50;54.60
24744;DHT22;12844;52.110;5.548;2024-01-07T04:32:12;14.40;54.50
24744;DHT22;12844;52.110;5.548;2024-01-07T04:34:37;14.40;54.50
24744;DHT22;12844;52.110;5.548;2024-01-07T04:37:03;14.40;54.50
24744;DHT22;12844;52.110;5.548;2024-01-07T04:39:29;14.40;54.60
24744;DHT22;12844;52.110;5.548;2024-01-07T04:41:54;14.40;54.50
24744;DHT22;12844;52.110;5.548;2024-01-07T04:44:20;14.40;54.50
24744;DHT22;12844;52.110;5.548;2024-01-07T04:46:47;14.40;54.60
24744;DHT22;12844;52.110;5.548;2024-01-07T04:49:14;14.40;54.60
24744;DHT22;12844;52.110;5.548;2024-01-07T04:51:39;14.40;54.60
24744;DHT22;12844;52.110;5.548;2024-01-07T04:54:05;14.40;54.50
24744;DHT22;12844;52.110;5.548;2024-01-07T04:56:31;14.40;54.60
24744;DHT22;12844;52.110;5.548;2024-01-07T04:58:57;14.40;54.60
24744;DHT22;12844;52.110;5.548;2024-01-07T05:01:23;14.40;54.50
24744;DHT22;12844;52.110;5.548;2024-01-07T05:03:48;14.40;54.60
24744;DHT22;12844;52.110;5.548;2024-01-07T05:06:14;14.40;54.60
24744;DHT22;12844;52.110;5.548;2024-01-07T05:08:41;14.40;54.60
24744;DHT22;12844;52.110;5.548;2024-01-07T05:11:07;14.40;54.60
24744;DHT22;12844;52.110;5.548;2024-01-07T05:13:33;14.40;54.60
24744;DHT22;12844;52.110;5.548;2024-01-07T05:15:58;14.40;54.60
24744;DHT22;12844;52.110;5.548;2024-01-07T05:18:24;14.40;54.60
24744;DHT22;12844;52.110;5.548;2024-01-07T05:20:51;14.40;54.60
24744;DHT22;12844;52.110;5.548;2024-01-07T05:23:17;14.40;54.50
24744;DHT22;12844;52.110;5.548;2024-01-07T05:25:43;14.40;54.60
24744;DHT22;12844;52.110;5.548;2024-01-07T05:28:12;14.40;54.60
24744;DHT22;12844;52.110;5.548;2024-01-07T05:30:39;14.40;54.60
24744;DHT22;12844;52.110;5.548;2024-01-07T05:33:04;14.40;54.50
24744;DHT22;12844;52.110;5.548;2024-01-07T05:35:30;14.40;54.50
24744;DHT22;12844;52.110;5.548;2024-01-07T05:37:56;14.40;54.50
24744;DHT22;12844;52.110;5.548;2024-01-07T05:40:22;14.40;54.60
24744;DHT22;12844;52.110;5.548;2024-01-07T05:42:48;14.40;54.60
24744;DHT22;12844;52.110;5.548;2024-01-07T05:45:13;14.40;54.60
24744;DHT22;12844;52.110;5.548;2024-01-07T05:47:39;14.30;55.20
24744;DHT22;12844;52.110;5.548;2024-01-07T05:50:06;14.30;54.60
24744;DHT22;12844;52.110;5.548;2024-01-07T05:52:32;14.30;54.60
24744;DHT22;12844;52.110;5.548;2024-01-07T05:54:58;14.30;54.50
24744;DHT22;12844;52.110;5.548;2024-01-07T05:57:23;14.40;54.50
24744;DHT22;12844;52.110;5.548;2024-01-07T05:59:49;14.30;54.50
24744;DHT22;12844;52.110;5.548;2024-01-07T06:02:18;14.30;54.50
24744;DHT22;12844;52.110;5.548;2024-01-07T06:04:44;14.30;54.50
24744;DHT22;12844;52.110;5.548;2024-01-07T06:07:09;14.30;54.50
24744;DHT22;12844;52.110;5.548;2024-01-07T06:09:35;14.30;54.50
24744;DHT22;12844;52.110;5.548;2024-01-07T06:12:01;14.30;54.60
24744;DHT22;12844;52.110;5.548;2024-01-07T06:14:26;14.30;54.50
24744;DHT22;12844;52.110;5.548;2024-01-07T06:16:52;14.30;54.60
24744;DHT22;12844;52.110;5.548;2024-01-07T06:19:18;14.30;54.50
24744;DHT22;12844;52.110;5.548;2024-01-07T06:21:44;14.30;54.60
24744;DHT22;12844;52.110;5.548;2024-01-07T06:24:10;14.30;54.50
24744;DHT22;12844;52.110;5.548;2024-01-07T06:26:36;14.30;54.50
24744;DHT22;12844;52.110;5.548;2024-01-07T06:29:02;14.30;54.50
24744;DHT22;12844;52.110;5.548;2024-01-07T06:31:27;14.30;55.10
24744;DHT22;12844;52.110;5.548;2024-01-07T06:33:53;14.30;54.60
24744;DHT22;12844;52.110;5.548;2024-01-07T06:36:21;14.30;54.60
24744;DHT22;12844;52.110;5.548;2024-01-07T06:38:47;14.30;54.50
24744;DHT22;12844;52.110;5.548;2024-01-07T06:41:14;14.30;54.60
24744;DHT22;12844;52.110;5.548;2024-01-07T06:43:39;14.30;54.60
24744;DHT22;12844;52.110;5.548;2024-01-07T06:46:05;14.30;55.20
24744;DHT22;12844;52.110;5.548;2024-01-07T06:48:31;14.30;54.60
24744;DHT22;12844;52.110;5.548;2024-01-07T06:50:57;14.30;54.60
24744;DHT22;12844;52.110;5.548;2024-01-07T06:53:23;14.30;54.60
24744;DHT22;12844;52.110;5.548;2024-01-07T06:55:48;14.30;54.60
24744;DHT22;12844;52.110;5.548;2024-01-07T06:58:14;14.30;54.50
24744;DHT22;12844;52.110;5.548;2024-01-07T07:00:40;14.30;54.60
24744;DHT22;12844;52.110;5.548;2024-01-07T07:03:06;14.30;54.60
24744;DHT22;12844;52.110;5.548;2024-01-07T07:05:31;14.30;54.50
24744;DHT22;12844;52.110;5.548;2024-01-07T07:07:57;14.30;54.60
24744;DHT22;12844;52.110;5.548;2024-01-07T07:10:23;14.30;54.60
24744;DHT22;12844;52.110;5.548;2024-01-07T07:12:49;14.30;54.60
24744;DHT22;12844;52.110;5.548;2024-01-07T07:15:16;14.20;54.60
24744;DHT22;12844;52.110;5.548;2024-01-07T07:17:42;14.20;54.60
24744;DHT22;12844;52.110;5.548;2024-01-07T07:20:08;14.20;54.60
24744;DHT22;12844;52.110;5.548;2024-01-07T07:22:33;14.20;54.60
24744;DHT22;12844;52.110;5.548;2024-01-07T07:24:59;14.20;54.60
24744;DHT22;12844;52.110;5.548;2024-01-07T07:27:25;14.20;54.60
24744;DHT22;12844;52.110;5.548;2024-01-07T07:29:50;14.20;54.60
24744;DHT22;12844;52.110;5.548;2024-01-07T07:32:16;14.20;54.50
24744;DHT22;12844;52.110;5.548;2024-01-07T07:34:41;14.20;54.60
24744;DHT22;12844;52.110;5.548;2024-01-07T07:37:07;14.20;54.50
24744;DHT22;12844;52.110;5.548;2024-01-07T07:39:32;14.20;54.60
24744;DHT22;12844;52.110;5.548;2024-01-07T07:41:58;14.20;54.60
24744;DHT22;12844;52.110;5.548;2024-01-07T07:44:24;14.20;54.60
24744;DHT22;12844;52.110;5.548;2024-01-07T07:46:49;14.20;54.60
24744;DHT22;12844;52.110;5.548;2024-01-07T07:49:15;14.20;54.60
24744;DHT22;12844;52.110;5.548;2024-01-07T07:51:43;14.20;54.60
24744;DHT22;12844;52.110;5.548;2024-01-07T07:54:08;14.20;54.70
24744;DHT22;12844;52.110;5.548;2024-01-07T07:56:34;14.20;54.60
24744;DHT22;12844;52.110;5.548;2024-01-07T07:59:04;14.20;54.60
24744;DHT22;12844;52.110;5.548;2024-01-07T08:01:29;14.20;55.20
24744;DHT22;12844;52.110;5.548;2024-01-07T08:03:55;14.20;54.60
24744;DHT22;12844;52.110;5.548;2024-01-07T08:06:21;14.20;54.60
24744;DHT22;12844;52.110;5.548;2024-01-07T08:08:47;14.20;54.60
24744;DHT22;12844;52.110;5.548;2024-01-07T08:11:12;14.20;54.60
24744;DHT22;12844;52.110;5.548;2024-01-07T08:13:38;14.20;54.60
24744;DHT22;12844;52.110;5.548;2024-01-07T08:16:04;14.20;54.70
24744;DHT22;12844;52.110;5.548;2024-01-07T08:18:35;14.20;54.70
24744;DHT22;12844;52.110;5.548;2024-01-07T08:21:01;14.20;54.60
24744;DHT22;12844;52.110;5.548;2024-01-07T08:23:26;14.10;54.60
24744;DHT22;12844;52.110;5.548;2024-01-07T08:25:52;14.20;54.70
24744;DHT22;12844;52.110;5.548;2024-01-07T08:28:18;14.10;54.60
24744;DHT22;12844;52.110;5.548;2024-01-07T08:30:44;14.10;54.60
24744;DHT22;12844;52.110;5.548;2024-01-07T08:33:10;14.10;54.60
24744;DHT22;12844;52.110;5.548;2024-01-07T08:35:36;14.10;54.60
24744;DHT22;12844;52.110;5.548;2024-01-07T08:38:01;14.10;54.60
24744;DHT22;12844;52.110;5.548;2024-01-07T08:40:27;14.10;54.60
24744;DHT22;12844;52.110;5.548;2024-01-07T08:42:52;14.10;54.60
24744;DHT22;12844;52.110;5.548;2024-01-07T08:45:18;14.10;54.60
24744;DHT22;12844;52.110;5.548;2024-01-07T08:47:44;14.10;54.60
24744;DHT22;12844;52.110;5.548;2024-01-07T08:50:11;14.10;54.60
24744;DHT22;12844;52.110;5.548;2024-01-07T08:52:38;14.10;54.60
24744;DHT22;12844;52.110;5.548;2024-01-07T08:55:03;14.10;54.60
24744;DHT22;12844;52.110;5.548;2024-01-07T08:57:32;14.10;54.60
24744;DHT22;12844;52.110;5.548;2024-01-07T08:59:57;14.10;54.60
24744;DHT22;12844;52.110;5.548;2024-01-07T09:02:23;14.10;54.60
24744;DHT22;12844;52.110;5.548;2024-01-07T09:04:49;14.10;54.60
24744;DHT22;12844;52.110;5.548;2024-01-07T09:07:14;14.10;54.50
24744;DHT22;12844;52.110;5.548;2024-01-07T09:09:42;14.10;54.60
24744;DHT22;12844;52.110;5.548;2024-01-07T09:12:07;14.10;54.60
24744;DHT22;12844;52.110;5.548;2024-01-07T09:14:33;14.10;54.60
24744;DHT22;12844;52.110;5.548;2024-01-07T09:16:59;14.10;54.60
24744;DHT22;12844;52.110;5.548;2024-01-07T09:19:24;14.10;54.60
24744;DHT22;12844;52.110;5.548;2024-01-07T09:21:50;14.10;54.50
24744;DHT22;12844;52.110;5.548;2024-01-07T09:24:15;14.10;54.60
24744;DHT22;12844;52.110;5.548;2024-01-07T09:26:41;14.10;54.50
24744;DHT22;12844;52.110;5.548;2024-01-07T09:29:07;14.10;54.50
24744;DHT22;12844;52.110;5.548;2024-01-07T09:31:32;14.10;54.50
24744;DHT22;12844;52.110;5.548;2024-01-07T09:33:58;14.10;54.50
24744;DHT22;12844;52.110;5.548;2024-01-07T09:36:23;14.10;54.50
24744;DHT22;12844;52.110;5.548;2024-01-07T09:38:49;14.10;54.50
24744;DHT22;12844;52.110;5.548;2024-01-07T09:41:15;14.10;54.40
24744;DHT22;12844;52.110;5.548;2024-01-07T09:43:40;14.10;54.50
24744;DHT22;12844;52.110;5.548;2024-01-07T09:46:06;14.10;54.50
24744;DHT22;12844;52.110;5.548;2024-01-07T09:48:31;14.10;54.40
24744;DHT22;12844;52.110;5.548;2024-01-07T09:50:57;14.10;54.40
24744;DHT22;12844;52.110;5.548;2024-01-07T09:53:25;14.10;54.40
24744;DHT22;12844;52.110;5.548;2024-01-07T09:58:29;14.10;54.40
24744;DHT22;12844;52.110;5.548;2024-01-07T10:00:54;14.10;54.50
24744;DHT22;12844;52.110;5.548;2024-01-07T10:03:20;14.10;54.50
24744;DHT22;12844;52.110;5.548;2024-01-07T10:05:46;14.10;54.50
24744;DHT22;12844;52.110;5.548;2024-01-07T10:08:11;14.10;54.50
24744;DHT22;12844;52.110;5.548;2024-01-07T10:10:37;14.10;54.40
24744;DHT22;12844;52.110;5.548;2024-01-07T10:13:03;14.10;54.40
24744;DHT22;12844;52.110;5.548;2024-01-07T10:15:29;14.10;54.40
24744;DHT22;12844;52.110;5.548;2024-01-07T10:17:55;14.10;54.40
24744;DHT22;12844;52.110;5.548;2024-01-07T10:20:21;14.10;54.40
24744;DHT22;12844;52.110;5.548;2024-01-07T10:22:50;14.10;54.60
24744;DHT22;12844;52.110;5.548;2024-01-07T10:25:16;14.10;54.70
24744;DHT22;12844;52.110;5.548;2024-01-07T10:27:42;14.10;54.70
24744;DHT22;12844;52.110;5.548;2024-01-07T10:30:08;14.10;54.80
24744;DHT22;12844;52.110;5.548;2024-01-07T10:32:37;14.10;54.80
24744;DHT22;12844;52.110;5.548;2024-01-07T10:35:04;14.10;54.70
24744;DHT22;12844;52.110;5.548;2024-01-07T10:37:32;14.00;54.80
24744;DHT22;12844;52.110;5.548;2024-01-07T10:39:59;14.00;54.70
24744;DHT22;12844;52.110;5.548;2024-01-07T10:42:31;14.00;55.00
24744;DHT22;12844;52.110;5.548;2024-01-07T10:44:58;14.00;54.70
24744;DHT22;12844;52.110;5.548;2024-01-07T10:47:27;14.00;54.80
24744;DHT22;12844;52.110;5.548;2024-01-07T10:49:57;14.00;54.80
24744;DHT22;12844;52.110;5.548;2024-01-07T10:52:22;14.00;54.60
24744;DHT22;12844;52.110;5.548;2024-01-07T10:54:48;14.00;54.50
24744;DHT22;12844;52.110;5.548;2024-01-07T10:57:42;14.10;54.60
24744;DHT22;12844;52.110;5.548;2024-01-07T11:00:03;14.10;54.60
24744;DHT22;12844;52.110;5.548;2024-01-07T11:02:37;14.00;54.30
24744;DHT22;12844;52.110;5.548;2024-01-07T11:05:14;14.00;54.40
24744;DHT22;12844;52.110;5.548;2024-01-07T11:07:45;14.10;54.20
24744;DHT22;12844;52.110;5.548;2024-01-07T11:10:25;14.10;54.10
24744;DHT22;12844;52.110;5.548;2024-01-07T11:12:54;14.10;54.20
24744;DHT22;12844;52.110;5.548;2024-01-07T11:18:21;14.10;54.20
24744;DHT22;12844;52.110;5.548;2024-01-07T11:20:48;14.10;54.20
24744;DHT22;12844;52.110;5.548;2024-01-07T11:23:27;14.10;54.20
24744;DHT22;12844;52.110;5.548;2024-01-07T11:26:02;14.10;54.30
24744;DHT22;12844;52.110;5.548;2024-01-07T11:29:00;14.10;54.40
24744;DHT22;12844;52.110;5.548;2024-01-07T11:31:45;14.10;54.00
24744;DHT22;12844;52.110;5.548;2024-01-07T11:34:38;14.20;54.20
24744;DHT22;12844;52.110;5.548;2024-01-07T11:37:07;14.20;54.10
24744;DHT22;12844;52.110;5.548;2024-01-07T11:39:34;14.20;54.30
24744;DHT22;12844;52.110;5.548;2024-01-07T11:42:02;14.20;54.40
24744;DHT22;12844;52.110;5.548;2024-01-07T11:44:29;14.20;54.10
24744;DHT22;12844;52.110;5.548;2024-01-07T11:46:55;14.20;54.10
24744;DHT22;12844;52.110;5.548;2024-01-07T11:49:20;14.20;54.10
24744;DHT22;12844;52.110;5.548;2024-01-07T11:51:46;14.10;54.10
24744;DHT22;12844;52.110;5.548;2024-01-07T11:54:12;14.10;54.20
24744;DHT22;12844;52.110;5.548;2024-01-07T11:56:37;14.10;54.10
24744;DHT22;12844;52.110;5.548;2024-01-07T11:59:03;14.10;54.20
24744;DHT22;12844;52.110;5.548;2024-01-07T12:01:29;14.10;54.20
24744;DHT22;12844;52.110;5.548;2024-01-07T12:03:54;14.10;54.30
24744;DHT22;12844;52.110;5.548;2024-01-07T12:06:20;14.10;54.10
24744;DHT22;12844;52.110;5.548;2024-01-07T12:08:46;14.10;54.00
24744;DHT22;12844;52.110;5.548;2024-01-07T12:11:12;14.10;54.00
24744;DHT22;12844;52.110;5.548;2024-01-07T12:13:39;14.10;54.00
24744;DHT22;12844;52.110;5.548;2024-01-07T12:16:05;14.10;54.10
24744;DHT22;12844;52.110;5.548;2024-01-07T12:18:31;14.10;54.00
24744;DHT22;12844;52.110;5.548;2024-01-07T12:20:58;14.20;54.10
24744;DHT22;12844;52.110;5.548;2024-01-07T12:23:25;14.20;54.10
24744;DHT22;12844;52.110;5.548;2024-01-07T12:25:54;14.20;54.10
24744;DHT22;12844;52.110;5.548;2024-01-07T12:28:23;14.20;54.00
24744;DHT22;12844;52.110;5.548;2024-01-07T12:30:49;14.20;54.10
24744;DHT22;12844;52.110;5.548;2024-01-07T12:33:21;14.20;54.10
24744;DHT22;12844;52.110;5.548;2024-01-07T12:35:47;14.20;54.00
24744;DHT22;12844;52.110;5.548;2024-01-07T12:38:13;14.20;53.90
24744;DHT22;12844;52.110;5.548;2024-01-07T12:40:39;14.20;53.90
24744;DHT22;12844;52.110;5.548;2024-01-07T12:43:05;14.20;54.00
24744;DHT22;12844;52.110;5.548;2024-01-07T12:45:32;14.20;54.00
24744;DHT22;12844;52.110;5.548;2024-01-07T12:47:58;14.20;53.90
24744;DHT22;12844;52.110;5.548;2024-01-07T12:50:27;14.20;53.90
24744;DHT22;12844;52.110;5.548;2024-01-07T12:52:53;14.20;53.90
24744;DHT22;12844;52.110;5.548;2024-01-07T12:55:19;14.20;53.90
24744;DHT22;12844;52.110;5.548;2024-01-07T12:57:44;14.30;54.00
24744;DHT22;12844;52.110;5.548;2024-01-07T13:00:10;14.30;54.00
24744;DHT22;12844;52.110;5.548;2024-01-07T13:02:37;14.30;53.80
24744;DHT22;12844;52.110;5.548;2024-01-07T13:05:02;14.30;53.90
24744;DHT22;12844;52.110;5.548;2024-01-07T13:07:30;14.30;53.80
24744;DHT22;12844;52.110;5.548;2024-01-07T13:09:56;14.30;53.70
24744;DHT22;12844;52.110;5.548;2024-01-07T13:12:21;14.30;53.50
24744;DHT22;12844;52.110;5.548;2024-01-07T13:14:47;14.30;53.40
24744;DHT22;12844;52.110;5.548;2024-01-07T13:17:13;14.40;53.20
24744;DHT22;12844;52.110;5.548;2024-01-07T13:19:39;14.40;53.10
24744;DHT22;12844;52.110;5.548;2024-01-07T13:22:05;14.40;53.20
24744;DHT22;12844;52.110;5.548;2024-01-07T13:24:30;14.30;53.30
24744;DHT22;12844;52.110;5.548;2024-01-07T13:26:56;14.40;53.20
24744;DHT22;12844;52.110;5.548;2024-01-07T13:29:22;14.40;53.30
24744;DHT22;12844;52.110;5.548;2024-01-07T13:31:47;14.30;53.50
24744;DHT22;12844;52.110;5.548;2024-01-07T13:34:13;14.30;53.40
24744;DHT22;12844;52.110;5.548;2024-01-07T13:36:39;14.30;53.30
24744;DHT22;12844;52.110;5.548;2024-01-07T13:39:06;14.30;53.30
24744;DHT22;12844;52.110;5.548;2024-01-07T13:41:33;14.40;53.00
24744;DHT22;12844;52.110;5.548;2024-01-07T13:44:00;14.40;52.90
24744;DHT22;12844;52.110;5.548;2024-01-07T13:46:25;14.40;52.90
24744;DHT22;12844;52.110;5.548;2024-01-07T13:48:51;14.40;52.90
24744;DHT22;12844;52.110;5.548;2024-01-07T13:51:17;14.40;52.60
24744;DHT22;12844;52.110;5.548;2024-01-07T13:53:43;14.40;52.40
24744;DHT22;12844;52.110;5.548;2024-01-07T13:56:11;14.50;52.30
24744;DHT22;12844;52.110;5.548;2024-01-07T13:58:37;14.50;52.40
24744;DHT22;12844;52.110;5.548;2024-01-07T14:01:02;14.50;52.40
24744;DHT22;12844;52.110;5.548;2024-01-07T14:03:28;14.50;52.60
24744;DHT22;12844;52.110;5.548;2024-01-07T14:05:55;14.50;52.50
24744;DHT22;12844;52.110;5.548;2024-01-07T14:08:21;14.50;52.40
24744;DHT22;12844;52.110;5.548;2024-01-07T14:10:47;14.50;52.30
24744;DHT22;12844;52.110;5.548;2024-01-07T14:13:13;14.50;52.30
24744;DHT22;12844;52.110;5.548;2024-01-07T14:15:39;14.50;52.30
24744;DHT22;12844;52.110;5.548;2024-01-07T14:18:05;14.50;52.30
24744;DHT22;12844;52.110;5.548;2024-01-07T14:20:30;14.50;52.20
24744;DHT22;12844;52.110;5.548;2024-01-07T14:22:56;14.40;52.20
24744;DHT22;12844;52.110;5.548;2024-01-07T14:25:22;14.40;52.30
24744;DHT22;12844;52.110;5.548;2024-01-07T14:27:47;14.40;52.30
24744;DHT22;12844;52.110;5.548;2024-01-07T14:30:13;14.40;52.30
24744;DHT22;12844;52.110;5.548;2024-01-07T14:32:40;14.30;52.30
24744;DHT22;12844;52.110;5.548;2024-01-07T14:35:07;14.30;52.40
24744;DHT22;12844;52.110;5.548;2024-01-07T14:37:32;14.30;53.00
24744;DHT22;12844;52.110;5.548;2024-01-07T14:39:58;14.30;52.40
24744;DHT22;12844;52.110;5.548;2024-01-07T14:42:23;14.30;52.40
24744;DHT22;12844;52.110;5.548;2024-01-07T14:44:49;14.30;52.50
24744;DHT22;12844;52.110;5.548;2024-01-07T14:47:15;14.20;52.50
24744;DHT22;12844;52.110;5.548;2024-01-07T14:49:41;14.20;52.50
24744;DHT22;12844;52.110;5.548;2024-01-07T14:52:07;14.20;52.60
24744;DHT22;12844;52.110;5.548;2024-01-07T14:54:32;14.20;52.60
24744;DHT22;12844;52.110;5.548;2024-01-07T14:57:00;14.20;52.60
24744;DHT22;12844;52.110;5.548;2024-01-07T14:59:26;14.20;52.60
24744;DHT22;12844;52.110;5.548;2024-01-07T15:01:51;14.20;52.60
24744;DHT22;12844;52.110;5.548;2024-01-07T15:04:19;14.20;52.60
24744;DHT22;12844;52.110;5.548;2024-01-07T15:06:44;14.20;52.70
24744;DHT22;12844;52.110;5.548;2024-01-07T15:09:11;14.20;52.60
24744;DHT22;12844;52.110;5.548;2024-01-07T15:11:39;14.20;52.50
24744;DHT22;12844;52.110;5.548;2024-01-07T15:14:09;14.10;52.60
24744;DHT22;12844;52.110;5.548;2024-01-07T15:16:35;14.20;52.70
24744;DHT22;12844;52.110;5.548;2024-01-07T15:19:04;14.10;52.70
24744;DHT22;12844;52.110;5.548;2024-01-07T15:21:29;14.20;52.60
24744;DHT22;12844;52.110;5.548;2024-01-07T15:23:55;14.30;52.50
24744;DHT22;12844;52.110;5.548;2024-01-07T15:26:20;14.30;52.40
24744;DHT22;12844;52.110;5.548;2024-01-07T15:28:46;14.30;52.30
24744;DHT22;12844;52.110;5.548;2024-01-07T15:31:12;14.30;52.20